Flight Track Log - Related Links

Times and Time Zones

All times are in EDT time to prevent confusion due to time zone crossing. See the N1727L flight status page for this flight to view local times or setup timezone preferences in your user account.

Time Position Orientation Groundspeed Altitude Reporting Facility
EDT Latitude Longitude Course Direction KTS MPH feet Rate Location/Type
Fri 02:38:55 PM 29.3514 -98.4294 27° Northeast 113 130 2,000  Level Houston Center
Fri 02:39:50 PM 29.3742 -98.4458 328° Northwest 105 121 2,600 626 Climbing Houston Center
Fri 02:40:50 PM 29.3989 -98.4644 327° Northwest 101 116 3,200 647 Climbing Houston Center
Fri 02:42:09 PM 29.4300 -98.4822 334° Northwest 97 112 4,100 609 Climbing Houston Center
Fri 02:42:58 PM 29.4500 -98.4942 333° Northwest 97 112 4,500 545 Climbing Houston Center
Fri 02:43:59 PM 29.4764 -98.5078 336° Northwest 107 123 5,100 632 Climbing Houston Center
Fri 02:44:00 PM 29.8037 -98.3308 27° Northeast  Level Estimated
Fri 02:45:11 PM 29.5083 -98.4897 26° Northeast 100 115 5,900  Level Houston Center
Fri 02:46:00 PM 29.5264 -98.4803 24° Northeast 100 115 6,400 569 Climbing Houston Center
Fri 02:47:07 PM 29.5583 -98.4619 27° Northeast 124 143 7,000 520 Climbing Houston Center
Fri 02:48:07 PM 29.5842 -98.4469 27° Northeast 104 120 7,500 236 Climbing Houston Center
Fri 02:49:14 PM 29.6200 -98.4258 27° Northeast 132 152 7,500  Level Houston Center
Fri 02:50:21 PM 29.6581 -98.4044 26° Northeast 146 168 7,500  Level Houston Center
Fri 02:51:16 PM 29.6917 -98.3833 29° Northeast 145 167 7,500  Level Houston Center
Fri 02:52:17 PM 29.7275 -98.3622 27° Northeast 145 167 7,500  Level Houston Center
Fri 02:53:11 PM 29.7614 -98.3436 25° Northeast 145 167 7,500  Level Houston Center
Fri 02:54:36 PM 29.8133 -98.3133 27° Northeast 146 168 7,500  Level Houston Center
Fri 02:55:39 PM 29.8492 -98.2911 28° Northeast 145 167 7,500  Level Houston Center
Fri 02:56:41 PM 29.8883 -98.2681 27° Northeast 147 169 7,500 48 Level Houston Center
Fri 02:57:43 PM 29.9244 -98.2475 26° Northeast 145 167 7,600 48 Climbing Houston Center
Fri 02:58:45 PM 29.9631 -98.2242 28° Northeast 144 166 7,600  Level Houston Center
Fri 02:59:47 PM 30.0003 -98.2025 27° Northeast 147 169 7,600  Level Houston Center
Fri 03:00:50 PM 30.0397 -98.1797 27° Northeast 146 168 7,600  Level Houston Center
Fri 03:01:52 PM 30.0761 -98.1575 28° Northeast 147 169 7,600 -48 Level Houston Center
Fri 03:02:54 PM 30.1119 -98.1353 28° Northeast 148 170 7,500 -48 Descending Houston Center
Fri 03:03:56 PM 30.1514 -98.1142 25° Northeast 146 168 7,500  Level Houston Center
Fri 03:04:58 PM 30.1883 -98.0914 28° Northeast 148 170 7,500  Level Houston Center
Fri 03:06:00 PM 30.2269 -98.0669 29° Northeast 147 169 7,500  Level Houston Center
Fri 03:07:02 PM 30.2636 -98.0467 26° Northeast 146 168 7,500  Level Houston Center
Fri 03:08:04 PM 30.3014 -98.0236 28° Northeast 145 167 7,500  Level Houston Center
Fri 03:09:07 PM 30.3350 -98.0050 26° Northeast 148 170 7,500  Level Houston Center
Fri 03:10:09 PM 30.3731 -97.9825 27° Northeast 151 174 7,500  Level Houston Center
Fri 03:11:11 PM 30.4139 -97.9578 28° Northeast 143 165 7,500  Level Houston Center
Fri 03:12:13 PM 30.4517 -97.9347 28° Northeast 148 170 7,500  Level Houston Center
Fri 03:13:15 PM 30.4872 -97.9128 28° Northeast 145 167 7,500  Level Houston Center
Fri 03:14:17 PM 30.5233 -97.8911 27° Northeast 145 167 7,500  Level Houston Center
Fri 03:15:19 PM 30.5586 -97.8708 26° Northeast 141 162 7,500  Level Houston Center
Fri 03:16:21 PM 30.5953 -97.8497 26° Northeast 144 166 7,500  Level Houston Center
Fri 03:17:23 PM 30.6303 -97.8283 28° Northeast 141 162 7,500  Level Houston Center
Fri 03:18:26 PM 30.6711 -97.8042 27° Northeast 139 160 7,500  Level Houston Center
Fri 03:19:28 PM 30.7064 -97.7828 28° Northeast 140 161 7,500  Level Houston Center
Fri 03:20:30 PM 30.7419 -97.7617 27° Northeast 142 163 7,500  Level Houston Center
Fri 03:21:32 PM 30.7789 -97.7392 28° Northeast 145 167 7,500  Level Houston Center
Fri 03:22:34 PM 30.8158 -97.7164 28° Northeast 147 169 7,500  Level Houston Center
Fri 03:23:36 PM 30.8508 -97.6956 27° Northeast 142 163 7,500  Level Houston Center
Fri 03:24:37 PM 30.8872 -97.6772 23° Northeast 142 163 7,500  Level Fort Worth Center
Fri 03:25:32 PM 30.9208 -97.6556 29° Northeast 140 161 7,500  Level Fort Worth Center
Fri 03:26:20 PM 30.9500 -97.6411 23° Northeast 143 165 7,500  Level Fort Worth Center
Fri 03:27:15 PM 30.9814 -97.6192 31° Northeast 145 167 7,500  Level Fort Worth Center
Fri 03:27:45 PM 31.0000 -97.6067 30° Northeast 144 166 7,500  Level Houston Center
Fri 03:28:47 PM 31.0356 -97.5867 26° Northeast 141 162 7,500  Level Houston Center
Fri 03:29:49 PM 31.0714 -97.5644 28° Northeast 143 165 7,500  Level Houston Center
Fri 03:30:51 PM 31.1075 -97.5419 28° Northeast 144 166 7,500  Level Houston Center
Fri 03:31:53 PM 31.1444 -97.5200 27° Northeast 146 168 7,500 -74 Level Houston Center
Fri 03:34:00 PM 31.1990 -97.4838 30° Northeast  Level FlightAware Approximate
Fri 03:41:00 PM 31.4244 -97.3354 27° Northeast  Level FlightAware Approximate
Fri 03:42:00 PM 31.4573 -97.3158 27° Northeast  Level FlightAware Approximate
Fri 03:43:00 PM 31.4902 -97.2961 27° Northeast  Level FlightAware Approximate
Fri 03:44:00 PM 31.5231 -97.2764 27° Northeast  Level FlightAware Approximate
Fri 03:45:00 PM 31.5560 -97.2567 27° Northeast  Level FlightAware Approximate
Fri 03:46:00 PM 31.5888 -97.2370 27° Northeast  Level FlightAware Approximate
Fri 03:47:00 PM 31.6217 -97.2172 27° Northeast  Level FlightAware Approximate
Fri 03:48:00 PM 31.6546 -97.1975 27° Northeast  Level FlightAware Approximate
Fri 03:49:00 PM 31.6875 -97.1777 27° Northeast  Level FlightAware Approximate
Fri 03:50:00 PM 31.7204 -97.1579 27° Northeast  Level FlightAware Approximate
Fri 03:51:00 PM 31.7532 -97.1381 27° Northeast  Level FlightAware Approximate
Fri 03:52:00 PM 31.7861 -97.1183 27° Northeast  Level FlightAware Approximate
Fri 03:53:00 PM 31.8190 -97.0985 27° Northeast  Level FlightAware Approximate
Fri 03:54:00 PM 31.8518 -97.0786 27° Northeast  Level FlightAware Approximate
Fri 03:55:00 PM 31.8847 -97.0588 27° Northeast  Level FlightAware Approximate
Fri 03:56:00 PM 31.9175 -97.0389 27° Northeast  Level FlightAware Approximate
Fri 03:57:00 PM 31.9504 -97.0190 27° Northeast  Level FlightAware Approximate
Fri 03:58:00 PM 31.9832 -96.9992 27° Northeast  Level FlightAware Approximate
Fri 03:59:00 PM 32.0161 -96.9792 27° Northeast  Level FlightAware Approximate
Fri 03:59:13 PM 32.1667 -96.9000 27° Northeast 157 181 5,400  Level Dallas / Fort Worth TRACON
Fri 04:00:00 PM 32.0489 -96.9593 27° Northeast  Level FlightAware Approximate
Fri 04:00:15 PM 32.2000 -96.8667 40° Northeast 164 189 5,100  Level Dallas / Fort Worth TRACON
Fri 04:01:00 PM 32.0818 -96.9394 27° Northeast  Level FlightAware Approximate
Fri 04:01:16 PM 32.2500 -96.8333 29° Northeast 166 191 4,800  Level Dallas / Fort Worth TRACON
Fri 04:02:00 PM 32.1146 -96.9194 27° Northeast  Level FlightAware Approximate
Fri 04:02:14 PM 32.2833 -96.8167 23° Northeast 162 186 4,500  Level Dallas / Fort Worth TRACON
Fri 04:03:00 PM 32.1474 -96.8995 27° Northeast  Level FlightAware Approximate
Fri 04:03:16 PM 32.3167 -96.8000 23° Northeast 159 183 4,200  Level Dallas / Fort Worth TRACON
Fri 04:04:00 PM 32.1803 -96.8795 27° Northeast  Level FlightAware Approximate
Fri 04:04:17 PM 32.3667 -96.7667 29° Northeast 159 183 3,900  Level Dallas / Fort Worth TRACON
Fri 04:05:14 PM 32.4000 -96.7500 23° Northeast 165 190 3,600 -203 Descending Dallas / Fort Worth TRACON
Fri 04:06:15 PM 32.4500 -96.7167 29° Northeast 156 180 3,500 -49 Descending Dallas / Fort Worth TRACON
Fri 04:07:16 PM 32.4833 -96.6833 40° Northeast 155 178 3,500  Level Dallas / Fort Worth TRACON
Fri 04:08:15 PM 32.5167 -96.6500 40° Northeast 159 183 3,500 -195 Level Dallas / Fort Worth TRACON
Fri 04:09:19 PM 32.5500 -96.6167 40° Northeast 163 188 3,100 -375 Descending Dallas / Fort Worth TRACON
Fri 04:11:00 PM 32.6078 -96.5910 21° North  Level FlightAware Approximate
Fri 04:18:00 PM 32.7333 -96.5167 40° Northeast  Level FlightAware Approximate
Fri 04:19:00 PM 32.7470 -96.5304 40° Northeast  Level Estimated
Fri 04:20:00 PM 32.7470 -96.5304 40° Northeast  Level Estimated
Fri 04:21:00 PM 32.7470 -96.5304 40° Northeast  Level Estimated
Fri 04:22:00 PM 32.7470 -96.5304 40° Northeast  Level Estimated
Fri 04:23:00 PM 32.7470 -96.5304 40° Northeast  Level Estimated
Fri 04:24:00 PM 32.7470 -96.5304 40° Northeast  Level Estimated
Fri 04:25:00 PM 32.7470 -96.5304 40° Northeast  Level Estimated
Fri 04:26:00 PM 32.7470 -96.5304 40° Northeast  Level Estimated
Fri 04:27:00 PM 32.7470 -96.5304 40° Northeast  Level Estimated
Fri 04:28:00 PM 32.7470 -96.5304 40° Northeast  Level Estimated
Fri 04:29:00 PM 32.7470 -96.5304 40° Northeast  Level Estimated
Fri 04:30:00 PM 32.7470 -96.5304 40° Northeast  Level Estimated
Fri 04:31:00 PM 32.7470 -96.5304 40° Northeast  Level Estimated

Login

Don't have an account? Register now (free) for customized features, flight alerts, and more!